createdAt,value
2023-04-17T00:01:19.103Z,7.32
2023-04-17T00:04:05.249Z,6.78
2023-04-17T00:06:54.089Z,7.28
2023-04-17T00:09:39.787Z,6.80
2023-04-17T00:12:25.020Z,4.45
2023-04-17T00:15:11.104Z,6.03
2023-04-17T00:17:56.601Z,7.97
2023-04-17T00:20:42.473Z,8.50
2023-04-17T00:23:27.891Z,7.85
2023-04-17T00:26:13.392Z,7.43
2023-04-17T00:28:59.076Z,6.15
2023-04-17T00:31:44.807Z,6.85
2023-04-17T00:34:30.974Z,9.98
2023-04-17T00:37:17.092Z,7.30
2023-04-17T00:40:03.367Z,10.20
2023-04-17T00:42:53.074Z,6.57
2023-04-17T00:45:39.484Z,7.07
2023-04-17T00:48:31.811Z,4.68
2023-04-17T00:51:17.814Z,6.70
2023-04-17T00:54:03.732Z,6.68
2023-04-17T00:56:51.462Z,6.05
2023-04-17T00:59:39.789Z,9.88
2023-04-17T01:02:26.306Z,5.35
2023-04-17T01:05:12.200Z,5.85
2023-04-17T01:07:58.288Z,7.63
2023-04-17T01:10:43.945Z,7.38
2023-04-17T01:13:29.663Z,7.28
2023-04-17T01:16:15.505Z,7.57
2023-04-17T01:19:01.519Z,8.15
2023-04-17T01:21:47.626Z,5.75
2023-04-17T01:24:33.707Z,8.80
2023-04-17T01:27:22.432Z,7.57
2023-04-17T01:30:08.948Z,5.05
2023-04-17T01:32:55.647Z,6.03
2023-04-17T01:35:41.411Z,6.28
2023-04-17T01:38:26.979Z,7.47
2023-04-17T01:41:12.570Z,10.13
2023-04-17T01:43:58.290Z,9.48
2023-04-17T01:46:43.710Z,6.47
2023-04-17T01:49:29.266Z,8.43
2023-04-17T01:52:17.767Z,8.05
2023-04-17T01:55:04.283Z,13.30
2023-04-17T01:57:50.349Z,16.08
2023-04-17T02:00:35.963Z,15.75
2023-04-17T02:03:21.550Z,15.60
2023-04-17T02:06:07.548Z,20.20
2023-04-17T02:08:53.524Z,20.88
2023-04-17T02:11:39.196Z,23.15
2023-04-17T02:14:25.053Z,21.77
2023-04-17T02:17:10.631Z,23.23
2023-04-17T02:19:56.656Z,27.80
2023-04-17T02:22:42.104Z,27.33
2023-04-17T02:25:28.605Z,26.90
2023-04-17T02:28:14.031Z,30.90
2023-04-17T02:30:59.632Z,28.73
2023-04-17T02:33:45.438Z,27.48
2023-04-17T02:36:31.316Z,29.35
2023-04-17T02:39:17.140Z,29.88
2023-04-17T02:42:03.193Z,32.50
2023-04-17T02:44:51.508Z,30.88
2023-04-17T02:47:37.814Z,35.08
2023-04-17T02:50:23.606Z,30.02
2023-04-17T02:53:09.507Z,29.17
2023-04-17T02:55:54.747Z,31.13
2023-04-17T02:58:40.501Z,30.23
2023-04-17T03:01:26.554Z,29.30
2023-04-17T03:04:13.136Z,32.33
2023-04-17T03:06:59.398Z,32.55
2023-04-17T03:09:47.439Z,31.13
2023-04-17T03:12:33.019Z,30.67
2023-04-17T03:15:18.158Z,35.05
2023-04-17T03:18:03.947Z,29.30
2023-04-17T03:20:49.424Z,29.35
2023-04-17T03:23:35.203Z,35.13
2023-04-17T03:26:21.756Z,29.88
2023-04-17T03:29:06.871Z,29.35
2023-04-17T03:31:52.798Z,32.67
2023-04-17T03:34:38.514Z,30.25
2023-04-17T03:37:23.871Z,34.40
2023-04-17T03:40:09.429Z,31.92
2023-04-17T03:42:54.898Z,30.60
2023-04-17T03:45:40.577Z,35.47
2023-04-17T03:48:26.327Z,34.22
2023-04-17T03:51:11.805Z,36.35
2023-04-17T03:53:57.601Z,39.25
2023-04-17T03:56:42.795Z,34.70
2023-04-17T03:59:28.644Z,36.58
2023-04-17T04:02:14.677Z,31.13
2023-04-17T04:05:00.515Z,36.60
2023-04-17T04:07:46.124Z,33.72
2023-04-17T04:10:32.682Z,37.25
2023-04-17T04:13:21.350Z,38.50
2023-04-17T04:16:07.827Z,44.00
2023-04-17T04:18:54.074Z,37.17
2023-04-17T04:21:39.555Z,38.05
2023-04-17T04:24:25.643Z,37.80
2023-04-17T04:27:13.030Z,38.92
2023-04-17T04:30:02.057Z,41.88
2023-04-17T04:32:47.743Z,40.97
2023-04-17T04:35:33.833Z,40.13
2023-04-17T04:38:19.010Z,43.92
2023-04-17T04:41:10.214Z,40.45
2023-04-17T04:43:55.734Z,43.90
2023-04-17T04:46:41.216Z,39.72
2023-04-17T04:49:26.684Z,45.40
2023-04-17T04:52:12.649Z,49.03
2023-04-17T04:54:58.074Z,49.55
2023-04-17T04:57:43.777Z,45.78
2023-04-17T05:00:29.546Z,42.13
2023-04-17T05:03:15.342Z,48.70
2023-04-17T05:06:00.975Z,44.10
2023-04-17T05:08:46.243Z,44.60
2023-04-17T05:11:33.481Z,45.58
2023-04-17T05:14:18.905Z,43.58
2023-04-17T05:17:04.583Z,50.97
2023-04-17T05:19:50.152Z,50.63
2023-04-17T05:22:36.019Z,41.03
2023-04-17T05:25:22.578Z,47.15
2023-04-17T05:28:08.271Z,49.90
2023-04-17T05:30:53.922Z,48.22
2023-04-17T05:33:39.371Z,47.80
2023-04-17T05:36:24.775Z,51.63
2023-04-17T05:39:10.621Z,47.28
2023-04-17T05:41:56.468Z,58.22
2023-04-17T05:44:42.508Z,46.28
2023-04-17T05:47:28.564Z,45.42
2023-04-17T05:50:14.037Z,50.50
2023-04-17T05:52:59.874Z,49.10
2023-04-17T05:55:45.404Z,44.55
2023-04-17T05:58:30.761Z,51.50
2023-04-17T06:01:18.275Z,48.72
2023-04-17T06:04:03.897Z,46.03
2023-04-17T06:06:49.953Z,52.47
2023-04-17T06:09:36.885Z,49.85
2023-04-17T06:12:22.019Z,51.72
2023-04-17T06:15:09.351Z,46.75
2023-04-17T06:17:54.973Z,52.20
2023-04-17T06:20:41.340Z,44.35
2023-04-17T06:23:26.563Z,43.35
2023-04-17T06:26:12.662Z,39.60
2023-04-17T06:28:58.574Z,42.95
2023-04-17T06:31:44.324Z,38.75
2023-04-17T06:34:29.717Z,38.38
2023-04-17T06:37:15.748Z,35.47
2023-04-17T06:40:01.230Z,33.33
2023-04-17T06:42:46.843Z,34.33
2023-04-17T06:45:35.715Z,38.17
2023-04-17T06:48:21.006Z,34.30
2023-04-17T06:51:07.545Z,31.25
2023-04-17T06:53:53.373Z,33.92
2023-04-17T06:56:39.287Z,33.15
2023-04-17T06:59:24.686Z,37.88
2023-04-17T07:02:10.421Z,39.55
2023-04-17T07:04:56.106Z,39.55
2023-04-17T07:07:42.069Z,43.90
2023-04-17T07:10:27.580Z,40.13
2023-04-17T07:13:12.764Z,40.58
2023-04-17T07:15:59.349Z,41.28
2023-04-17T07:18:44.983Z,39.30
2023-04-17T07:21:30.936Z,39.53
2023-04-17T07:24:16.829Z,40.80
2023-04-17T07:27:04.041Z,38.72
2023-04-17T07:29:54.636Z,37.90
2023-04-17T07:32:40.347Z,31.60
2023-04-17T07:35:26.112Z,31.08
2023-04-17T07:38:11.415Z,33.00
2023-04-17T07:40:56.855Z,31.08
2023-04-17T07:43:42.285Z,26.73
2023-04-17T07:46:27.874Z,30.50
2023-04-17T07:49:13.653Z,28.40
2023-04-17T07:52:00.126Z,25.15
2023-04-17T07:54:46.005Z,21.73
2023-04-17T07:57:32.899Z,21.45
2023-04-17T08:00:19.153Z,21.08
2023-04-17T08:03:06.204Z,26.80
2023-04-17T08:05:54.656Z,22.02
2023-04-17T08:08:40.767Z,17.15
2023-04-17T08:11:26.340Z,14.68
2023-04-17T08:14:12.134Z,15.38
2023-04-17T08:16:58.251Z,14.23
2023-04-17T08:19:43.597Z,13.95
2023-04-17T08:22:29.341Z,16.88
2023-04-17T08:25:15.013Z,11.60
2023-04-17T08:28:00.242Z,10.48
2023-04-17T08:30:45.898Z,10.60
2023-04-17T08:33:31.994Z,10.60
2023-04-17T08:36:17.586Z,13.90
2023-04-17T08:39:04.652Z,17.17
2023-04-17T08:42:02.993Z,14.45
2023-04-17T08:44:48.797Z,13.43
2023-04-17T08:47:34.989Z,10.60
2023-04-17T08:50:22.729Z,9.82
2023-04-17T08:53:08.917Z,10.45
2023-04-17T08:55:55.412Z,15.50
2023-04-17T08:58:41.381Z,9.30
2023-04-17T09:01:29.773Z,10.40
2023-04-17T09:04:35.109Z,11.05
2023-04-17T09:07:29.783Z,11.43
2023-04-17T09:10:16.326Z,12.68
2023-04-17T09:13:01.845Z,10.75
2023-04-17T09:16:03.598Z,12.95
2023-04-17T09:18:49.640Z,10.02
2023-04-17T09:21:35.804Z,9.30
2023-04-17T09:24:34.786Z,10.95
2023-04-17T09:27:30.378Z,10.60
2023-04-17T09:30:16.633Z,12.60
2023-04-17T09:33:06.792Z,12.60
2023-04-17T09:35:52.636Z,12.55
2023-04-17T09:38:40.860Z,11.65
2023-04-17T09:41:27.821Z,11.27
2023-04-17T09:44:27.975Z,15.52
2023-04-17T09:47:16.092Z,11.10
2023-04-17T09:50:03.337Z,14.30
2023-04-17T09:52:53.761Z,9.85
2023-04-17T09:55:41.653Z,15.25
2023-04-17T09:58:27.288Z,11.77
2023-04-17T10:01:13.994Z,14.82
2023-04-17T10:04:00.702Z,13.23
2023-04-17T10:06:47.865Z,13.25
2023-04-17T10:09:33.278Z,8.95
2023-04-17T10:12:21.161Z,8.43
2023-04-17T10:15:08.637Z,11.65
2023-04-17T10:17:56.252Z,9.85
2023-04-17T10:20:45.021Z,8.25
2023-04-17T10:23:36.708Z,10.00
2023-04-17T10:26:25.133Z,5.60
2023-04-17T10:29:12.760Z,4.75
2023-04-17T10:32:10.944Z,6.30
2023-04-17T10:34:58.301Z,6.75
2023-04-17T10:37:49.968Z,8.68
2023-04-17T10:40:36.717Z,8.40
2023-04-17T10:43:25.062Z,8.98
2023-04-17T10:46:14.892Z,5.38
2023-04-17T10:49:05.021Z,4.68
2023-04-17T10:51:52.375Z,4.95
2023-04-17T10:55:11.160Z,7.00
2023-04-17T10:57:58.655Z,8.35
2023-04-17T11:00:51.840Z,8.25
2023-04-17T11:03:38.531Z,7.38
2023-04-17T11:06:31.608Z,8.43
2023-04-17T11:09:21.277Z,9.55
2023-04-17T11:12:06.955Z,5.50
2023-04-17T11:14:52.277Z,8.13
2023-04-17T11:17:40.681Z,5.75
2023-04-17T11:20:28.314Z,6.95
2023-04-17T11:23:15.832Z,7.35
2023-04-17T11:26:01.668Z,8.93
2023-04-17T11:28:48.205Z,10.13
2023-04-17T11:31:40.867Z,8.38
2023-04-17T11:34:27.485Z,5.75
2023-04-17T11:37:15.193Z,7.38
2023-04-17T11:40:10.128Z,6.15
2023-04-17T11:42:55.854Z,9.02
2023-04-17T11:45:46.115Z,6.05
2023-04-17T11:48:34.593Z,7.63
2023-04-17T11:51:20.442Z,10.25
2023-04-17T11:54:06.244Z,11.27
2023-04-17T11:57:18.504Z,6.03
2023-04-17T12:00:15.171Z,8.25
2023-04-17T12:03:03.081Z,10.18
2023-04-17T12:06:02.432Z,6.97
2023-04-17T12:08:53.721Z,9.18
2023-04-17T12:11:39.354Z,5.88
2023-04-17T12:14:26.432Z,9.27
2023-04-17T12:17:12.187Z,7.05
2023-04-17T12:20:02.550Z,10.65
2023-04-17T12:22:48.375Z,7.40
2023-04-17T12:25:34.128Z,8.55
2023-04-17T12:28:20.251Z,8.40
2023-04-17T12:31:06.187Z,8.88
2023-04-17T12:33:52.686Z,10.10
2023-04-17T12:36:39.306Z,8.63
2023-04-17T12:39:25.857Z,10.18
2023-04-17T12:42:11.676Z,9.15
2023-04-17T12:44:56.978Z,8.70
2023-04-17T12:47:43.196Z,8.88
2023-04-17T12:50:29.116Z,10.52
2023-04-17T12:53:15.766Z,10.10
2023-04-17T12:56:01.102Z,10.35
2023-04-17T12:58:46.835Z,11.50
2023-04-17T13:01:32.694Z,10.73
2023-04-17T13:04:18.398Z,9.15
2023-04-17T13:07:04.275Z,7.43
2023-04-17T13:09:49.627Z,11.00
2023-04-17T13:12:35.406Z,8.20
2023-04-17T13:15:21.875Z,10.02
2023-04-17T13:18:08.265Z,10.73
2023-04-17T13:20:54.998Z,10.45
2023-04-17T13:23:40.681Z,9.10
2023-04-17T13:26:26.017Z,8.07
2023-04-17T13:29:12.127Z,10.43
2023-04-17T13:31:58.092Z,7.53
2023-04-17T13:34:43.962Z,9.77
2023-04-17T13:37:29.517Z,4.95
2023-04-17T13:40:17.193Z,8.60
2023-04-17T13:43:03.174Z,6.03
2023-04-17T13:45:49.911Z,6.57
2023-04-17T13:48:35.964Z,7.57
2023-04-17T13:51:21.843Z,7.80
2023-04-17T13:54:08.938Z,7.47
2023-04-17T13:56:54.844Z,5.53
2023-04-17T13:59:40.443Z,6.07
2023-04-17T14:02:25.982Z,6.10
2023-04-17T14:05:11.902Z,5.78
2023-04-17T14:07:57.535Z,5.43
2023-04-17T14:10:42.925Z,5.88
2023-04-17T14:13:28.429Z,9.25
2023-04-17T14:16:14.164Z,8.02
2023-04-17T14:19:06.658Z,8.05
2023-04-17T14:21:59.333Z,5.20
2023-04-17T14:24:45.124Z,4.70
2023-04-17T14:27:30.764Z,7.03
2023-04-17T14:30:15.938Z,8.40
2023-04-17T14:33:01.675Z,5.15
2023-04-17T14:35:47.174Z,7.43
2023-04-17T14:38:53.463Z,5.45
2023-04-17T14:41:39.270Z,6.63
2023-04-17T14:44:25.288Z,7.97
2023-04-17T14:47:13.783Z,6.60
2023-04-17T14:49:59.747Z,9.57
2023-04-17T14:52:46.545Z,9.35
2023-04-17T14:55:32.340Z,9.05
2023-04-17T14:58:17.761Z,10.85
2023-04-17T15:01:03.852Z,14.20
2023-04-17T15:03:49.574Z,9.77
2023-04-17T15:06:35.613Z,9.18
2023-04-17T15:09:20.874Z,9.38
2023-04-17T15:12:06.610Z,11.98
2023-04-17T15:14:52.027Z,9.15
2023-04-17T15:17:38.550Z,12.57
2023-04-17T15:20:28.422Z,11.52
2023-04-17T15:23:14.079Z,11.10
2023-04-17T15:26:01.385Z,10.75
2023-04-17T15:28:47.109Z,13.35
2023-04-17T15:31:34.305Z,11.52
2023-04-17T15:34:19.815Z,11.57
2023-04-17T15:37:09.241Z,10.57
2023-04-17T15:39:54.625Z,13.95
2023-04-17T15:42:40.283Z,14.38
2023-04-17T15:45:26.347Z,13.63
2023-04-17T15:48:11.926Z,13.50
2023-04-17T15:50:57.291Z,11.85
2023-04-17T15:53:43.053Z,13.55
2023-04-17T15:56:28.919Z,14.15
2023-04-17T15:59:14.536Z,15.20
2023-04-17T16:02:01.291Z,15.77
2023-04-17T16:04:46.973Z,11.93
2023-04-17T16:07:33.122Z,12.65
2023-04-17T16:10:19.074Z,15.38
2023-04-17T16:13:04.898Z,18.02
2023-04-17T16:15:51.861Z,16.60
2023-04-17T16:18:37.681Z,14.55
2023-04-17T16:21:23.084Z,15.02
2023-04-17T16:24:08.956Z,13.27
2023-04-17T16:26:57.422Z,13.07
2023-04-17T16:29:42.848Z,16.58
2023-04-17T16:32:28.390Z,16.10
2023-04-17T16:35:13.742Z,13.75
2023-04-17T16:38:01.437Z,14.43
2023-04-17T16:40:47.059Z,14.13
2023-04-17T16:43:32.348Z,15.18
2023-04-17T16:46:23.952Z,16.27
2023-04-17T16:49:14.173Z,17.58
2023-04-17T16:51:59.839Z,15.43
2023-04-17T16:54:45.413Z,16.05
2023-04-17T16:57:32.093Z,15.68
2023-04-17T17:00:17.656Z,15.90
2023-04-17T17:03:03.243Z,17.33
2023-04-17T17:05:49.495Z,17.02
2023-04-17T17:08:34.925Z,15.73
2023-04-17T17:11:21.770Z,17.40
2023-04-17T17:14:07.657Z,19.35
2023-04-17T17:16:53.542Z,16.20
2023-04-17T17:19:39.506Z,16.15
2023-04-17T17:22:25.392Z,15.75
2023-04-17T17:25:11.149Z,16.05
2023-04-17T17:27:57.179Z,19.17
2023-04-17T17:30:42.716Z,17.48
2023-04-17T17:33:28.707Z,15.38
2023-04-17T17:36:14.350Z,16.35
2023-04-17T17:39:00.414Z,16.33
2023-04-17T17:41:47.345Z,16.08
2023-04-17T17:44:32.986Z,16.30
2023-04-17T17:47:18.533Z,18.45
2023-04-17T17:50:04.642Z,22.70
2023-04-17T17:52:50.246Z,18.65
2023-04-17T17:55:38.495Z,18.35
2023-04-17T17:58:24.453Z,20.08
2023-04-17T18:01:10.070Z,18.60
2023-04-17T18:03:56.311Z,17.10
2023-04-17T18:06:41.942Z,16.75
2023-04-17T18:09:27.712Z,19.33
2023-04-17T18:12:13.192Z,17.75
2023-04-17T18:14:58.589Z,17.10
2023-04-17T18:17:44.192Z,24.08
2023-04-17T18:20:29.727Z,22.05
2023-04-17T18:23:15.268Z,20.27
2023-04-17T18:26:02.270Z,19.20
2023-04-17T18:28:48.446Z,19.90
2023-04-17T18:31:33.807Z,23.55
2023-04-17T18:34:23.327Z,20.08
2023-04-17T18:37:10.042Z,23.17
2023-04-17T18:39:55.696Z,18.88
2023-04-17T18:42:44.316Z,20.67
2023-04-17T18:45:33.371Z,25.30
2023-04-17T18:48:19.495Z,20.60
2023-04-17T18:51:12.697Z,22.15
2023-04-17T18:56:44.915Z,23.67
2023-04-17T18:59:30.991Z,21.52
2023-04-17T19:02:16.851Z,26.00
2023-04-17T19:05:02.606Z,26.10
2023-04-17T19:07:48.602Z,25.20
2023-04-17T19:10:34.706Z,22.33
2023-04-17T19:13:20.650Z,23.38
2023-04-17T19:16:06.525Z,26.52
2023-04-17T19:18:52.352Z,25.90
2023-04-17T19:21:37.843Z,23.88
2023-04-17T19:24:23.450Z,26.38
2023-04-17T19:27:09.493Z,28.80
2023-04-17T19:29:57.746Z,23.13
2023-04-17T19:32:43.444Z,25.23
2023-04-17T19:35:29.429Z,22.88
2023-04-17T19:38:17.337Z,23.48
2023-04-17T19:41:15.317Z,25.08
2023-04-17T19:44:00.741Z,26.52
2023-04-17T19:46:46.096Z,25.05
2023-04-17T19:49:31.686Z,26.88
2023-04-17T19:52:17.452Z,23.98
2023-04-17T19:55:04.750Z,26.25
2023-04-17T19:57:52.263Z,25.95
2023-04-17T20:00:37.928Z,25.73
2023-04-17T20:03:24.645Z,28.70
2023-04-17T20:06:11.222Z,25.88
2023-04-17T20:08:58.529Z,29.48
2023-04-17T20:11:44.396Z,23.48
2023-04-17T20:14:29.560Z,30.02
2023-04-17T20:17:15.573Z,25.85
2023-04-17T20:20:03.770Z,28.85
2023-04-17T20:22:49.925Z,26.80
2023-04-17T20:25:35.511Z,31.30
2023-04-17T20:28:21.604Z,30.48
2023-04-17T20:31:07.882Z,28.20
2023-04-17T20:33:53.589Z,26.25
2023-04-17T20:36:39.290Z,30.55
2023-04-17T20:39:25.981Z,32.30
2023-04-17T20:42:11.456Z,32.08
2023-04-17T20:44:56.946Z,29.48
2023-04-17T20:47:56.075Z,34.88
2023-04-17T20:50:43.139Z,30.17
2023-04-17T20:53:28.654Z,31.17
2023-04-17T20:56:13.902Z,30.30
2023-04-17T20:58:59.675Z,35.00
2023-04-17T21:01:45.111Z,32.47
2023-04-17T21:04:30.777Z,27.45
2023-04-17T21:07:16.809Z,32.35
2023-04-17T21:10:02.929Z,30.38
2023-04-17T21:12:48.822Z,33.58
2023-04-17T21:15:34.449Z,35.15
2023-04-17T21:18:20.359Z,31.08
2023-04-17T21:21:06.498Z,35.53
2023-04-17T21:23:52.280Z,33.97
2023-04-17T21:26:38.171Z,36.85
2023-04-17T21:29:27.919Z,33.30
2023-04-17T21:32:13.744Z,35.63
2023-04-17T21:34:59.983Z,33.22
2023-04-17T21:37:45.895Z,41.38
2023-04-17T21:40:33.655Z,36.72
2023-04-17T21:43:19.613Z,40.28
2023-04-17T21:46:10.203Z,36.13
2023-04-17T21:48:56.015Z,38.15
2023-04-17T21:51:41.696Z,39.42
2023-04-17T21:54:27.803Z,38.25
2023-04-17T21:57:13.684Z,36.67
2023-04-17T21:59:59.415Z,34.78
2023-04-17T22:02:45.335Z,38.33
2023-04-17T22:05:40.573Z,37.88
2023-04-17T22:08:29.009Z,34.30
2023-04-17T22:11:14.592Z,36.70
2023-04-17T22:14:00.820Z,35.85
2023-04-17T22:16:46.797Z,39.53
2023-04-17T22:19:32.979Z,34.83
2023-04-17T22:22:18.390Z,39.10
2023-04-17T22:25:04.483Z,37.05
2023-04-17T22:27:50.406Z,40.67
2023-04-17T22:30:36.302Z,37.95
2023-04-17T22:33:21.948Z,35.50
2023-04-17T22:36:07.811Z,34.08
2023-04-17T22:38:53.204Z,35.95
2023-04-17T22:41:38.862Z,33.72
2023-04-17T22:44:24.562Z,37.70
2023-04-17T22:47:10.609Z,36.90
2023-04-17T22:49:56.728Z,36.65
2023-04-17T22:52:43.189Z,36.85
2023-04-17T22:55:32.612Z,34.25
2023-04-17T22:58:18.202Z,34.83
2023-04-17T23:01:05.906Z,37.90
2023-04-17T23:03:58.675Z,35.75
2023-04-17T23:06:58.279Z,37.03
2023-04-17T23:09:44.779Z,36.17
2023-04-17T23:12:31.839Z,34.58
2023-04-17T23:15:17.356Z,36.35
2023-04-17T23:18:03.297Z,35.67
2023-04-17T23:20:49.912Z,34.60
2023-04-17T23:23:35.165Z,31.33
2023-04-17T23:26:20.743Z,34.95
2023-04-17T23:29:06.641Z,33.42
2023-04-17T23:31:52.323Z,29.65
2023-04-17T23:34:38.059Z,30.17
2023-04-17T23:37:23.908Z,32.80
2023-04-17T23:40:09.758Z,30.38
2023-04-17T23:42:55.675Z,31.45
2023-04-17T23:45:41.252Z,32.28
2023-04-17T23:48:27.067Z,32.20
2023-04-17T23:51:12.533Z,36.10
2023-04-17T23:54:00.377Z,30.48
2023-04-17T23:56:46.212Z,28.23
2023-04-17T23:59:31.528Z,32.45
